createdAt,value
2018-06-18T00:00:30.570Z,6.97
2018-06-18T00:02:58.965Z,6.07
2018-06-18T00:05:27.125Z,6.97
2018-06-18T00:07:55.222Z,6.83
2018-06-18T00:10:23.635Z,6.43
2018-06-18T00:12:51.996Z,5.90
2018-06-18T00:15:20.434Z,5.73
2018-06-18T00:17:48.913Z,6.40
2018-06-18T00:20:17.329Z,6.73
2018-06-18T00:22:46.109Z,7.37
2018-06-18T00:25:14.460Z,6.57
2018-06-18T00:27:42.649Z,6.80
2018-06-18T00:30:11.018Z,6.10
2018-06-18T00:32:39.085Z,6.57
2018-06-18T00:35:07.321Z,6.80
2018-06-18T00:37:35.731Z,6.37
2018-06-18T00:40:03.834Z,6.63
2018-06-18T00:42:32.002Z,6.87
2018-06-18T00:45:00.376Z,7.33
2018-06-18T00:47:28.480Z,7.43
2018-06-18T00:49:56.868Z,6.70
2018-06-18T00:52:25.260Z,7.43
2018-06-18T00:54:53.615Z,7.13
2018-06-18T00:57:21.993Z,7.90
2018-06-18T00:59:50.398Z,7.13
2018-06-18T01:02:18.759Z,6.73
2018-06-18T01:04:47.146Z,7.27
2018-06-18T01:07:15.552Z,7.10
2018-06-18T01:09:44.828Z,7.17
2018-06-18T01:12:13.230Z,7.50
2018-06-18T01:14:41.604Z,8.13
2018-06-18T01:17:10.013Z,7.93
2018-06-18T01:19:38.374Z,8.53
2018-06-18T01:22:06.792Z,7.43
2018-06-18T01:24:44.213Z,7.00
2018-06-18T01:27:12.587Z,7.00
2018-06-18T01:29:40.993Z,7.00
2018-06-18T01:32:09.481Z,7.10
2018-06-18T01:34:37.878Z,8.78
2018-06-18T01:37:05.954Z,6.73
2018-06-18T01:39:34.082Z,7.80
2018-06-18T01:42:03.275Z,7.57
2018-06-18T01:44:31.646Z,7.67
2018-06-18T01:47:00.810Z,6.97
2018-06-18T01:49:28.915Z,7.43
2018-06-18T01:51:57.244Z,6.83
2018-06-18T01:54:25.368Z,8.10
2018-06-18T01:56:54.684Z,6.90
2018-06-18T01:59:22.449Z,7.47
2018-06-18T02:01:52.986Z,7.90
2018-06-18T02:04:19.309Z,8.20
2018-06-18T02:06:48.108Z,7.57
2018-06-18T02:09:16.505Z,8.30
2018-06-18T02:11:44.888Z,7.20
2018-06-18T02:14:13.220Z,8.10
2018-06-18T02:16:41.645Z,8.07
2018-06-18T02:19:10.003Z,8.57
2018-06-18T02:21:38.949Z,7.17
2018-06-18T02:24:07.372Z,9.28
2018-06-18T02:26:35.710Z,7.70
2018-06-18T02:29:22.196Z,7.57
2018-06-18T02:32:21.770Z,8.07
2018-06-18T02:35:07.898Z,7.30
2018-06-18T02:37:53.747Z,8.17
2018-06-18T02:40:40.006Z,7.37
2018-06-18T02:43:08.368Z,7.47
2018-06-18T02:45:36.418Z,7.00
2018-06-18T02:48:04.960Z,7.60
2018-06-18T02:50:33.009Z,7.00
2018-06-18T02:53:01.345Z,7.37
2018-06-18T02:55:29.745Z,7.70
2018-06-18T02:57:57.843Z,7.63
2018-06-18T03:00:26.191Z,7.40
2018-06-18T03:02:54.649Z,7.00
2018-06-18T03:05:22.974Z,7.00
2018-06-18T03:07:51.953Z,7.20
2018-06-18T03:10:20.220Z,6.97
2018-06-18T03:12:48.592Z,6.80
2018-06-18T03:15:16.949Z,7.20
2018-06-18T03:17:45.326Z,7.77
2018-06-18T03:20:31.553Z,7.77
2018-06-18T03:23:27.579Z,8.40
2018-06-18T03:26:13.399Z,7.20
2018-06-18T03:28:59.543Z,7.63
2018-06-18T03:31:27.943Z,8.27
2018-06-18T03:33:56.120Z,8.10
2018-06-18T03:36:24.184Z,8.00
2018-06-18T03:38:52.514Z,8.50
2018-06-18T03:41:20.878Z,8.00
2018-06-18T03:43:56.647Z,7.93
2018-06-18T03:46:25.024Z,8.43
2018-06-18T03:48:53.394Z,8.70
2018-06-18T03:51:21.724Z,7.57
2018-06-18T03:53:50.163Z,8.27
2018-06-18T03:56:18.209Z,9.38
2018-06-18T03:58:46.564Z,7.90
2018-06-18T04:02:11.994Z,7.33
2018-06-18T04:05:06.259Z,8.00
2018-06-18T04:07:52.839Z,7.23
2018-06-18T04:10:39.177Z,7.63
2018-06-18T04:13:07.693Z,7.80
2018-06-18T04:15:36.149Z,7.30
2018-06-18T04:18:04.363Z,7.27
2018-06-18T04:20:44.713Z,6.87
2018-06-18T04:23:14.695Z,7.13
2018-06-18T04:25:42.886Z,7.20
2018-06-18T04:28:11.056Z,7.80
2018-06-18T04:30:39.273Z,7.90
2018-06-18T04:33:08.098Z,7.30
2018-06-18T04:35:36.536Z,7.87
2018-06-18T04:38:04.900Z,7.07
2018-06-18T04:40:33.312Z,7.47
2018-06-18T04:43:19.347Z,7.73
2018-06-18T04:46:06.704Z,8.25
2018-06-18T04:48:52.793Z,7.70
2018-06-18T04:51:22.818Z,7.97
2018-06-18T04:53:51.253Z,7.40
2018-06-18T04:56:19.425Z,8.03
2018-06-18T04:58:47.776Z,8.53
2018-06-18T05:01:25.862Z,7.87
2018-06-18T05:03:54.652Z,8.40
2018-06-18T05:06:25.093Z,8.20
2018-06-18T05:09:02.093Z,9.30
2018-06-18T05:11:30.481Z,9.80
2018-06-18T05:13:58.883Z,8.50
2018-06-18T05:16:27.040Z,8.87
2018-06-18T05:18:55.383Z,8.93
2018-06-18T05:21:23.766Z,10.68
2018-06-18T05:23:52.187Z,9.03
2018-06-18T05:26:21.605Z,9.00
2018-06-18T05:28:49.996Z,8.97
2018-06-18T05:31:18.353Z,8.73
2018-06-18T05:33:46.499Z,8.70
2018-06-18T05:36:14.979Z,9.80
2018-06-18T05:38:43.429Z,11.80
2018-06-18T05:41:11.793Z,10.37
2018-06-18T05:43:40.179Z,10.67
2018-06-18T05:46:08.581Z,10.97
2018-06-18T05:48:36.982Z,11.13
2018-06-18T05:51:05.372Z,10.80
2018-06-18T05:53:33.752Z,13.75
2018-06-18T05:56:02.163Z,10.57
2018-06-18T05:58:30.484Z,9.93
2018-06-18T06:00:58.886Z,13.08
2018-06-18T06:03:27.270Z,11.10
2018-06-18T06:05:55.836Z,10.80
2018-06-18T06:08:27.304Z,10.53
2018-06-18T06:10:55.394Z,13.40
2018-06-18T06:13:23.501Z,11.50
2018-06-18T06:15:51.991Z,11.90
2018-06-18T06:18:20.316Z,11.03
2018-06-18T06:20:53.720Z,10.30
2018-06-18T06:23:21.882Z,12.30
2018-06-18T06:25:50.356Z,11.53
2018-06-18T06:28:18.800Z,11.47
2018-06-18T06:30:47.235Z,14.58
2018-06-18T06:33:15.642Z,11.63
2018-06-18T06:35:44.934Z,12.30
2018-06-18T06:38:13.352Z,13.13
2018-06-18T06:40:42.212Z,11.63
2018-06-18T06:43:11.539Z,12.60
2018-06-18T06:45:40.323Z,12.57
2018-06-18T06:48:08.734Z,12.83
2018-06-18T06:50:37.154Z,13.17
2018-06-18T06:53:05.563Z,13.63
2018-06-18T06:55:33.926Z,12.80
2018-06-18T06:58:02.285Z,14.07
2018-06-18T07:00:30.497Z,14.23
2018-06-18T07:02:58.596Z,14.00
2018-06-18T07:05:26.942Z,13.03
2018-06-18T07:07:55.413Z,13.87
2018-06-18T07:10:23.488Z,14.93
2018-06-18T07:12:51.850Z,14.37
2018-06-18T07:15:20.290Z,14.73
2018-06-18T07:17:48.728Z,14.57
2018-06-18T07:20:17.102Z,14.00
2018-06-18T07:22:45.521Z,14.03
2018-06-18T07:25:13.890Z,12.67
2018-06-18T07:27:42.511Z,12.77
2018-06-18T07:30:10.724Z,13.23
2018-06-18T07:32:39.022Z,12.70
2018-06-18T07:35:07.486Z,14.30
2018-06-18T07:37:35.939Z,11.67
2018-06-18T07:40:04.057Z,11.70
2018-06-18T07:42:32.480Z,12.13
2018-06-18T07:45:00.684Z,12.00
2018-06-18T07:47:29.084Z,11.90
2018-06-18T07:49:57.496Z,12.07
2018-06-18T07:52:26.008Z,12.23
2018-06-18T07:54:54.160Z,11.57
2018-06-18T07:57:22.547Z,11.33
2018-06-18T07:59:50.965Z,12.43
2018-06-18T08:02:19.375Z,11.03
2018-06-18T08:04:47.900Z,11.50
2018-06-18T08:07:16.244Z,10.43
2018-06-18T08:09:46.594Z,10.47
2018-06-18T08:12:14.911Z,10.40
2018-06-18T08:14:43.336Z,10.83
2018-06-18T08:17:13.132Z,10.53
2018-06-18T08:19:41.573Z,12.90
2018-06-18T08:22:09.957Z,10.80
2018-06-18T08:24:38.339Z,10.80
2018-06-18T08:27:08.374Z,10.23
2018-06-18T08:29:36.774Z,9.93
2018-06-18T08:32:05.180Z,10.87
2018-06-18T08:34:33.291Z,12.93
2018-06-18T08:37:01.722Z,11.50
2018-06-18T08:39:30.115Z,10.77
2018-06-18T08:41:58.534Z,13.53
2018-06-18T08:44:26.975Z,11.00
2018-06-18T08:46:55.361Z,11.20
2018-06-18T08:49:23.732Z,11.30
2018-06-18T08:52:09.786Z,11.60
2018-06-18T08:54:56.058Z,11.47
2018-06-18T08:57:42.247Z,11.67
2018-06-18T09:00:28.451Z,11.10
2018-06-18T09:03:05.556Z,12.20
2018-06-18T09:05:49.055Z,11.23
2018-06-18T09:08:24.152Z,11.57
2018-06-18T09:10:53.303Z,11.27
2018-06-18T09:13:21.754Z,11.90
2018-06-18T09:15:50.185Z,10.80
2018-06-18T09:18:18.563Z,10.32
2018-06-18T09:20:47.266Z,11.00
2018-06-18T09:23:15.733Z,10.75
2018-06-18T09:25:59.950Z,11.90
2018-06-18T09:28:29.406Z,12.00
2018-06-18T09:30:57.962Z,10.90
2018-06-18T09:33:26.317Z,11.47
2018-06-18T09:35:54.913Z,11.18
2018-06-18T09:38:23.352Z,13.20
2018-06-18T09:40:53.849Z,11.45
2018-06-18T09:43:22.313Z,11.00
2018-06-18T09:45:52.230Z,10.97
2018-06-18T09:48:20.665Z,11.90
2018-06-18T09:51:07.104Z,11.40
2018-06-18T09:53:53.724Z,10.98
2018-06-18T09:56:39.881Z,11.90
2018-06-18T09:59:26.072Z,11.57
2018-06-18T10:01:54.270Z,10.55
2018-06-18T10:04:22.673Z,11.60
2018-06-18T10:06:51.050Z,10.80
2018-06-18T10:09:19.517Z,11.83
2018-06-18T10:11:47.932Z,12.17
2018-06-18T10:14:16.347Z,10.25
2018-06-18T10:16:44.505Z,10.40
2018-06-18T10:19:12.961Z,12.60
2018-06-18T10:21:41.414Z,12.05
2018-06-18T10:24:09.905Z,10.45
2018-06-18T10:26:38.290Z,9.90
2018-06-18T10:29:06.705Z,10.88
2018-06-18T10:31:35.085Z,9.88
2018-06-18T10:34:21.504Z,8.85
2018-06-18T10:37:07.738Z,9.28
2018-06-18T10:39:53.913Z,9.93
2018-06-18T10:42:39.948Z,9.75
2018-06-18T10:45:08.407Z,9.95
2018-06-18T10:47:36.805Z,9.38
2018-06-18T10:50:05.201Z,9.53
2018-06-18T10:52:33.634Z,10.10
2018-06-18T10:55:01.785Z,11.05
2018-06-18T10:57:30.185Z,10.45
2018-06-18T10:59:58.254Z,9.63
2018-06-18T11:02:26.399Z,9.23
2018-06-18T11:05:03.937Z,8.53
2018-06-18T11:07:32.806Z,8.78
2018-06-18T11:10:00.953Z,9.18
2018-06-18T11:12:30.236Z,9.60
2018-06-18T11:14:58.587Z,11.63
2018-06-18T11:17:44.619Z,9.33
2018-06-18T11:20:32.788Z,10.10
2018-06-18T11:23:19.052Z,11.38
2018-06-18T11:26:05.233Z,9.45
2018-06-18T11:28:33.737Z,9.05
2018-06-18T11:31:02.140Z,8.38
2018-06-18T11:33:30.293Z,7.28
2018-06-18T11:36:00.091Z,8.63
2018-06-18T11:38:28.497Z,10.43
2018-06-18T11:40:56.887Z,8.33
2018-06-18T11:43:25.085Z,7.97
2018-06-18T11:45:53.546Z,8.30
2018-06-18T11:48:22.297Z,8.08
2018-06-18T11:50:51.093Z,7.90
2018-06-18T11:53:20.336Z,8.28
2018-06-18T11:55:48.506Z,8.10
2018-06-18T11:58:38.663Z,7.30
2018-06-18T12:01:25.243Z,7.53
2018-06-18T12:04:11.496Z,7.20
2018-06-18T12:07:00.674Z,7.30
2018-06-18T12:09:30.465Z,7.72
2018-06-18T12:11:59.000Z,7.55
2018-06-18T12:14:27.313Z,7.20
2018-06-18T12:16:55.751Z,7.00
2018-06-18T12:19:23.869Z,6.37
2018-06-18T12:21:52.262Z,6.53
2018-06-18T12:24:20.720Z,7.05
2018-06-18T12:26:49.077Z,6.83
2018-06-18T12:29:17.428Z,6.33
2018-06-18T12:31:45.556Z,6.85
2018-06-18T12:34:13.979Z,7.28
2018-06-18T12:36:42.159Z,7.20
2018-06-18T12:39:12.656Z,7.97
2018-06-18T12:41:55.461Z,8.03
2018-06-18T12:44:23.931Z,9.37
2018-06-18T12:47:10.136Z,7.42
2018-06-18T12:49:56.277Z,8.00
2018-06-18T12:52:42.219Z,7.92
2018-06-18T12:55:28.762Z,7.62
2018-06-18T12:57:57.273Z,7.40
2018-06-18T13:00:25.328Z,8.87
2018-06-18T13:02:58.312Z,7.33
2018-06-18T13:05:26.438Z,7.75
2018-06-18T13:07:54.868Z,7.20
2018-06-18T13:10:23.274Z,7.03
2018-06-18T13:12:51.663Z,6.12
2018-06-18T13:15:20.080Z,6.47
2018-06-18T13:17:48.513Z,6.65
2018-06-18T13:20:16.952Z,7.30
2018-06-18T13:22:45.368Z,6.67
2018-06-18T13:25:13.802Z,6.67
2018-06-18T13:27:59.954Z,7.08
2018-06-18T13:30:28.473Z,7.80
2018-06-18T13:32:56.796Z,6.70
2018-06-18T13:35:25.334Z,7.12
2018-06-18T13:38:13.921Z,7.47
2018-06-18T13:41:01.213Z,8.30
2018-06-18T13:43:51.582Z,7.85
2018-06-18T13:46:37.927Z,7.72
2018-06-18T13:49:06.394Z,7.92
2018-06-18T13:51:34.752Z,8.38
2018-06-18T13:54:03.144Z,7.30
2018-06-18T13:56:31.672Z,7.42
2018-06-18T13:59:01.399Z,7.50
2018-06-18T14:01:30.788Z,7.78
2018-06-18T14:03:59.017Z,7.30
2018-06-18T14:06:27.524Z,8.50
2018-06-18T14:08:57.033Z,7.83
2018-06-18T14:11:26.254Z,7.85
2018-06-18T14:13:55.275Z,8.80
2018-06-18T14:16:23.676Z,7.58
2018-06-18T14:18:52.077Z,9.43
2018-06-18T14:21:20.447Z,7.95
2018-06-18T14:23:48.850Z,8.40
2018-06-18T14:26:18.613Z,7.17
2018-06-18T14:28:47.015Z,8.90
2018-06-18T14:31:33.348Z,7.47
2018-06-18T14:34:20.775Z,7.05
2018-06-18T14:37:09.119Z,6.80
2018-06-18T14:39:53.622Z,6.67
2018-06-18T14:42:22.061Z,6.87
2018-06-18T14:44:50.733Z,7.80
2018-06-18T14:47:19.170Z,7.40
2018-06-18T14:49:47.616Z,7.85
2018-06-18T14:52:15.860Z,7.20
2018-06-18T14:54:44.225Z,7.90
2018-06-18T14:57:13.161Z,7.00
2018-06-18T14:59:54.469Z,3.20
2018-06-18T15:02:22.631Z,2.37
2018-06-18T15:04:51.646Z,2.40
2018-06-18T15:07:20.085Z,1.80
2018-06-18T15:09:48.453Z,2.08
2018-06-18T15:12:18.191Z,2.27
2018-06-18T15:15:05.588Z,2.50
2018-06-18T15:17:33.981Z,2.65
2018-06-18T15:20:02.390Z,2.70
2018-06-18T15:22:31.215Z,2.52
2018-06-18T15:25:02.226Z,2.65
2018-06-18T15:27:30.613Z,3.12
2018-06-18T15:29:59.021Z,3.33
2018-06-18T15:32:27.467Z,4.10
2018-06-18T15:34:55.875Z,4.00
2018-06-18T15:37:25.151Z,4.60
2018-06-18T15:39:53.509Z,5.33
2018-06-18T15:42:21.626Z,4.80
2018-06-18T15:44:50.033Z,5.10
2018-06-18T15:47:18.448Z,4.70
2018-06-18T15:49:46.556Z,4.55
2018-06-18T15:52:14.962Z,3.20
2018-06-18T15:54:44.826Z,3.35
2018-06-18T15:57:16.097Z,2.80
2018-06-18T15:59:44.464Z,2.90
2018-06-18T16:02:14.237Z,2.90
2018-06-18T16:04:42.412Z,2.50
2018-06-18T16:07:10.565Z,3.00
2018-06-18T16:09:39.051Z,3.55
2018-06-18T16:12:07.473Z,3.72
2018-06-18T16:14:36.067Z,3.55
2018-06-18T16:17:04.409Z,3.80
2018-06-18T16:19:35.276Z,3.70
2018-06-18T16:22:03.694Z,4.72
2018-06-18T16:24:32.100Z,4.67
2018-06-18T16:27:00.540Z,4.80
2018-06-18T16:29:28.906Z,4.78
2018-06-18T16:31:57.328Z,5.03
2018-06-18T16:34:25.718Z,5.10
2018-06-18T16:36:54.290Z,6.20
2018-06-18T16:39:22.689Z,5.12
2018-06-18T16:41:50.768Z,6.12
2018-06-18T16:44:19.251Z,5.25
2018-06-18T16:46:47.618Z,4.80
2018-06-18T16:49:15.892Z,5.15
2018-06-18T16:51:44.358Z,5.30
2018-06-18T16:54:12.763Z,5.47
2018-06-18T16:56:40.941Z,5.28
2018-06-18T16:59:09.132Z,5.42
2018-06-18T17:01:37.645Z,5.22
2018-06-18T17:04:09.291Z,5.33
2018-06-18T17:06:37.803Z,4.80
2018-06-18T17:09:10.347Z,4.85
2018-06-18T17:11:38.793Z,4.20
2018-06-18T17:14:07.605Z,3.87
2018-06-18T17:16:36.049Z,4.08
2018-06-18T17:19:04.496Z,5.17
2018-06-18T17:21:33.019Z,4.80
2018-06-18T17:24:01.389Z,5.37
2018-06-18T17:26:32.777Z,5.65
2018-06-18T17:29:01.215Z,5.22
2018-06-18T17:31:30.084Z,4.78
2018-06-18T17:33:58.577Z,5.05
2018-06-18T17:36:27.025Z,5.03
2018-06-18T17:38:55.091Z,5.53
2018-06-18T17:41:23.520Z,5.22
2018-06-18T17:43:51.929Z,5.55
2018-06-18T17:46:20.015Z,5.30
2018-06-18T17:48:48.423Z,5.92
2018-06-18T17:51:16.979Z,5.22
2018-06-18T17:53:45.468Z,5.10
2018-06-18T17:56:13.644Z,5.42
2018-06-18T17:58:42.120Z,6.28
2018-06-18T18:01:10.620Z,5.70
2018-06-18T18:03:38.737Z,5.85
2018-06-18T18:06:07.566Z,6.12
2018-06-18T18:08:36.003Z,6.45
2018-06-18T18:11:04.400Z,5.75
2018-06-18T18:13:32.633Z,6.45
2018-06-18T18:16:00.908Z,6.80
2018-06-18T18:18:29.236Z,6.50
2018-06-18T18:20:58.826Z,5.95
2018-06-18T18:23:27.023Z,5.83
2018-06-18T18:25:55.118Z,6.30
2018-06-18T18:28:23.630Z,6.03
2018-06-18T18:30:55.655Z,6.22
2018-06-18T18:33:24.157Z,7.58
2018-06-18T18:35:53.261Z,6.95
2018-06-18T18:38:24.265Z,6.22
2018-06-18T18:40:54.872Z,7.12
2018-06-18T18:43:23.589Z,6.70
2018-06-18T18:45:51.985Z,6.28
2018-06-18T18:48:25.112Z,5.97
2018-06-18T18:50:55.015Z,5.90
2018-06-18T18:53:23.951Z,5.53
2018-06-18T18:56:11.471Z,6.42
2018-06-18T18:59:06.812Z,6.08
2018-06-18T19:01:35.272Z,6.40
2018-06-18T19:04:04.271Z,7.25
2018-06-18T19:06:32.966Z,6.42
2018-06-18T19:09:01.596Z,5.92
2018-06-18T19:11:30.068Z,5.62
2018-06-18T19:13:59.762Z,6.20
2018-06-18T19:16:28.593Z,5.53
2018-06-18T19:18:59.696Z,6.03
2018-06-18T19:21:28.267Z,5.35
2018-06-18T19:23:56.434Z,5.47
2018-06-18T19:26:24.761Z,5.60
2018-06-18T19:28:53.128Z,5.22
2018-06-18T19:31:26.003Z,6.40
2018-06-18T19:34:12.349Z,5.30
2018-06-18T19:36:49.594Z,5.42
2018-06-18T19:39:18.544Z,5.42
2018-06-18T19:41:47.587Z,4.75
2018-06-18T19:44:17.689Z,4.58
2018-06-18T19:47:29.603Z,4.75
2018-06-18T19:49:59.579Z,5.17
2018-06-18T19:52:29.838Z,5.60
2018-06-18T19:55:10.676Z,4.97
2018-06-18T19:57:40.787Z,4.85
2018-06-18T20:00:08.928Z,5.30
2018-06-18T20:02:38.815Z,5.30
2018-06-18T20:05:14.252Z,5.12
2018-06-18T20:08:06.734Z,5.45
2018-06-18T20:10:35.268Z,6.62
2018-06-18T20:13:04.244Z,5.50
2018-06-18T20:15:32.893Z,5.75
2018-06-18T20:18:01.530Z,5.67
2018-06-18T20:20:31.670Z,5.37
2018-06-18T20:23:00.265Z,6.23
2018-06-18T20:25:32.077Z,5.85
2018-06-18T20:28:01.766Z,6.30
2018-06-18T20:30:31.843Z,5.95
2018-06-18T20:33:00.678Z,5.40
2018-06-18T20:35:34.789Z,5.70
2018-06-18T20:38:03.800Z,5.87
2018-06-18T20:40:33.358Z,6.00
2018-06-18T20:43:04.759Z,6.53
2018-06-18T20:45:34.766Z,6.65
2018-06-18T20:48:08.528Z,7.05
2018-06-18T20:50:39.795Z,6.00
2018-06-18T20:53:10.166Z,5.55
2018-06-18T20:55:41.676Z,5.93
2018-06-18T20:58:11.899Z,5.80
2018-06-18T21:00:42.483Z,6.50
2018-06-18T21:03:14.576Z,6.67
2018-06-18T21:05:43.215Z,7.20
2018-06-18T21:08:12.489Z,7.55
2018-06-18T21:10:41.841Z,7.20
2018-06-18T21:13:10.683Z,5.95
2018-06-18T21:15:39.802Z,5.90
2018-06-18T21:18:08.720Z,6.07
2018-06-18T21:20:38.575Z,7.20
2018-06-18T21:23:07.973Z,6.90
2018-06-18T21:25:37.657Z,6.83
2018-06-18T21:28:05.480Z,6.50
2018-06-18T21:30:35.574Z,6.53
2018-06-18T21:33:04.791Z,6.90
2018-06-18T21:35:36.489Z,6.80
2018-06-18T21:38:07.223Z,8.57
2018-06-18T21:40:36.074Z,7.70
2018-06-18T21:43:05.418Z,8.25
2018-06-18T21:45:34.179Z,8.07
2018-06-18T21:48:03.215Z,6.28
2018-06-18T21:50:32.302Z,7.00
2018-06-18T21:53:01.307Z,7.07
2018-06-18T21:55:30.701Z,6.90
2018-06-18T21:58:00.993Z,7.40
2018-06-18T22:00:38.013Z,7.10
2018-06-18T22:03:08.146Z,8.88
2018-06-18T22:05:37.313Z,8.40
2018-06-18T22:08:12.042Z,7.63
2018-06-18T22:10:40.451Z,7.33
2018-06-18T22:13:09.018Z,7.47
2018-06-18T22:15:37.420Z,7.37
2018-06-18T22:18:05.954Z,8.37
2018-06-18T22:20:34.043Z,7.73
2018-06-18T22:23:02.160Z,9.28
2018-06-18T22:25:30.547Z,8.27
2018-06-18T22:27:58.998Z,8.60
2018-06-18T22:30:28.287Z,9.83
2018-06-18T22:32:56.802Z,9.03
2018-06-18T22:35:25.131Z,8.13
2018-06-18T22:37:53.264Z,7.70
2018-06-18T22:40:21.687Z,8.10
2018-06-18T22:42:49.862Z,7.90
2018-06-18T22:45:17.999Z,8.40
2018-06-18T22:47:46.435Z,8.43
2018-06-18T22:50:14.762Z,8.17
2018-06-18T22:52:43.248Z,9.10
2018-06-18T22:55:11.696Z,10.85
2018-06-18T22:57:40.088Z,10.93
2018-06-18T23:00:10.648Z,9.53
2018-06-18T23:02:39.051Z,9.13
2018-06-18T23:05:07.399Z,9.60
2018-06-18T23:07:35.837Z,9.20
2018-06-18T23:10:04.304Z,10.90
2018-06-18T23:12:38.808Z,10.93
2018-06-18T23:15:07.592Z,10.20
2018-06-18T23:17:36.005Z,9.93
2018-06-18T23:20:04.503Z,10.07
2018-06-18T23:22:32.880Z,9.77
2018-06-18T23:25:01.328Z,10.83
2018-06-18T23:27:29.443Z,10.73
2018-06-18T23:29:57.812Z,11.00
2018-06-18T23:32:26.244Z,9.63
2018-06-18T23:34:54.345Z,9.70
2018-06-18T23:37:22.685Z,9.83
2018-06-18T23:39:51.126Z,10.37
2018-06-18T23:42:19.804Z,10.87
2018-06-18T23:44:47.836Z,10.63
2018-06-18T23:47:17.002Z,10.57
2018-06-18T23:49:45.491Z,10.73
2018-06-18T23:52:13.875Z,11.57
2018-06-18T23:54:42.326Z,11.27
2018-06-18T23:57:10.726Z,10.97
2018-06-18T23:59:39.339Z,10.93
